sensor_id;sensor_type;location;lat;lon;timestamp;pressure;altitude;pressure_sealevel;temperature;humidity
81802;BME280;71199;52.490;5.448;2024-02-14T00:00:01;101266.66;;;6.68;100.00
81802;BME280;71199;52.490;5.448;2024-02-14T00:02:27;101259.78;;;6.74;100.00
81802;BME280;71199;52.490;5.448;2024-02-14T00:04:53;101252.56;;;6.73;100.00
81802;BME280;71199;52.490;5.448;2024-02-14T00:07:19;101251.88;;;6.80;100.00
81802;BME280;71199;52.490;5.448;2024-02-14T00:09:45;101257.47;;;6.79;100.00
81802;BME280;71199;52.490;5.448;2024-02-14T00:12:10;101260.34;;;6.77;100.00
81802;BME280;71199;52.490;5.448;2024-02-14T00:14:36;101254.00;;;6.77;100.00
81802;BME280;71199;52.490;5.448;2024-02-14T00:17:03;101247.00;;;6.84;100.00
81802;BME280;71199;52.490;5.448;2024-02-14T00:19:29;101247.44;;;6.89;100.00
81802;BME280;71199;52.490;5.448;2024-02-14T00:21:54;101245.72;;;6.88;100.00
81802;BME280;71199;52.490;5.448;2024-02-14T00:24:19;101239.13;;;6.91;100.00
81802;BME280;71199;52.490;5.448;2024-02-14T00:26:45;101237.09;;;6.93;100.00
81802;BME280;71199;52.490;5.448;2024-02-14T00:29:11;101235.81;;;6.97;100.00
81802;BME280;71199;52.490;5.448;2024-02-14T00:31:37;101230.63;;;6.94;100.00
81802;BME280;71199;52.490;5.448;2024-02-14T00:34:02;101222.16;;;6.97;100.00
81802;BME280;71199;52.490;5.448;2024-02-14T00:36:28;101224.75;;;6.98;100.00
81802;BME280;71199;52.490;5.448;2024-02-14T00:38:53;101224.47;;;7.01;100.00
81802;BME280;71199;52.490;5.448;2024-02-14T00:41:19;101217.28;;;7.00;100.00
81802;BME280;71199;52.490;5.448;2024-02-14T00:43:44;101218.00;;;7.02;100.00
81802;BME280;71199;52.490;5.448;2024-02-14T00:46:15;101212.84;;;7.09;100.00
81802;BME280;71199;52.490;5.448;2024-02-14T00:48:41;101210.38;;;7.06;100.00
81802;BME280;71199;52.490;5.448;2024-02-14T00:51:06;101211.09;;;7.08;100.00
81802;BME280;71199;52.490;5.448;2024-02-14T00:53:32;101192.53;;;7.12;100.00
81802;BME280;71199;52.490;5.448;2024-02-14T00:55:57;101200.88;;;7.10;100.00
81802;BME280;71199;52.490;5.448;2024-02-14T00:58:22;101196.31;;;7.11;100.00
81802;BME280;71199;52.490;5.448;2024-02-14T01:00:48;101191.97;;;7.08;100.00
81802;BME280;71199;52.490;5.448;2024-02-14T01:03:13;101195.56;;;7.18;100.00
81802;BME280;71199;52.490;5.448;2024-02-14T01:05:40;101198.03;;;7.21;100.00
81802;BME280;71199;52.490;5.448;2024-02-14T01:08:05;101187.38;;;7.28;100.00
81802;BME280;71199;52.490;5.448;2024-02-14T01:10:32;101192.00;;;7.28;100.00
81802;BME280;71199;52.490;5.448;2024-02-14T01:12:58;101196.72;;;7.25;100.00
81802;BME280;71199;52.490;5.448;2024-02-14T01:15:23;101190.81;;;7.30;100.00
81802;BME280;71199;52.490;5.448;2024-02-14T01:17:48;101189.97;;;7.30;100.00
81802;BME280;71199;52.490;5.448;2024-02-14T01:20:14;101188.69;;;7.34;100.00
81802;BME280;71199;52.490;5.448;2024-02-14T01:22:40;101193.00;;;7.36;100.00
81802;BME280;71199;52.490;5.448;2024-02-14T01:25:05;101191.69;;;7.40;100.00
81802;BME280;71199;52.490;5.448;2024-02-14T01:27:31;101183.63;;;7.39;100.00
81802;BME280;71199;52.490;5.448;2024-02-14T01:29:56;101185.63;;;7.37;100.00
81802;BME280;71199;52.490;5.448;2024-02-14T01:32:22;101181.03;;;7.47;100.00
81802;BME280;71199;52.490;5.448;2024-02-14T01:34:48;101184.34;;;7.51;100.00
81802;BME280;71199;52.490;5.448;2024-02-14T01:37:14;101188.38;;;7.56;100.00
81802;BME280;71199;52.490;5.448;2024-02-14T01:39:39;101194.69;;;7.57;100.00
81802;BME280;71199;52.490;5.448;2024-02-14T01:42:04;101185.34;;;7.59;100.00
81802;BME280;71199;52.490;5.448;2024-02-14T01:44:32;101194.25;;;7.61;100.00
81802;BME280;71199;52.490;5.448;2024-02-14T01:46:57;101188.50;;;7.64;100.00
81802;BME280;71199;52.490;5.448;2024-02-14T01:49:23;101184.47;;;7.69;100.00
81802;BME280;71199;52.490;5.448;2024-02-14T01:51:49;101188.22;;;7.67;100.00
81802;BME280;71199;52.490;5.448;2024-02-14T01:54:15;101191.38;;;7.73;100.00
81802;BME280;71199;52.490;5.448;2024-02-14T01:56:42;101177.56;;;7.74;100.00
81802;BME280;71199;52.490;5.448;2024-02-14T01:59:09;101183.59;;;7.78;100.00
81802;BME280;71199;52.490;5.448;2024-02-14T02:01:35;101185.91;;;7.82;100.00
81802;BME280;71199;52.490;5.448;2024-02-14T02:04:01;101184.03;;;7.83;100.00
81802;BME280;71199;52.490;5.448;2024-02-14T02:06:26;101185.72;;;7.84;100.00
81802;BME280;71199;52.490;5.448;2024-02-14T02:08:52;101189.34;;;7.84;100.00
81802;BME280;71199;52.490;5.448;2024-02-14T02:11:18;101194.38;;;7.89;100.00
81802;BME280;71199;52.490;5.448;2024-02-14T02:13:44;101191.63;;;7.89;100.00
81802;BME280;71199;52.490;5.448;2024-02-14T02:16:09;101194.91;;;7.93;100.00
81802;BME280;71199;52.490;5.448;2024-02-14T02:18:35;101186.56;;;7.94;100.00
81802;BME280;71199;52.490;5.448;2024-02-14T02:21:00;101196.94;;;7.91;100.00
81802;BME280;71199;52.490;5.448;2024-02-14T02:23:29;101201.28;;;7.93;100.00
81802;BME280;71199;52.490;5.448;2024-02-14T02:25:55;101188.13;;;7.97;100.00
81802;BME280;71199;52.490;5.448;2024-02-14T02:28:20;101195.34;;;7.98;100.00
81802;BME280;71199;52.490;5.448;2024-02-14T02:30:45;101199.97;;;7.97;100.00
81802;BME280;71199;52.490;5.448;2024-02-14T02:33:11;101197.34;;;8.05;100.00
81802;BME280;71199;52.490;5.448;2024-02-14T02:35:41;101205.56;;;8.05;100.00
81802;BME280;71199;52.490;5.448;2024-02-14T02:38:07;101200.38;;;8.02;100.00
81802;BME280;71199;52.490;5.448;2024-02-14T02:40:33;101190.16;;;8.04;100.00
81802;BME280;71199;52.490;5.448;2024-02-14T02:42:58;101203.81;;;8.04;100.00
81802;BME280;71199;52.490;5.448;2024-02-14T02:45:24;101203.56;;;8.07;100.00
81802;BME280;71199;52.490;5.448;2024-02-14T02:47:49;101202.38;;;8.10;100.00
81802;BME280;71199;52.490;5.448;2024-02-14T02:50:17;101205.13;;;8.10;100.00
81802;BME280;71199;52.490;5.448;2024-02-14T02:52:42;101201.66;;;8.08;100.00
81802;BME280;71199;52.490;5.448;2024-02-14T02:55:08;101215.81;;;8.03;100.00
81802;BME280;71199;52.490;5.448;2024-02-14T02:57:33;101213.19;;;8.12;100.00
81802;BME280;71199;52.490;5.448;2024-02-14T03:00:02;101216.78;;;8.12;100.00
81802;BME280;71199;52.490;5.448;2024-02-14T03:02:30;101208.44;;;8.14;100.00
81802;BME280;71199;52.490;5.448;2024-02-14T03:04:56;101214.75;;;8.14;100.00
81802;BME280;71199;52.490;5.448;2024-02-14T03:07:21;101211.00;;;8.15;100.00
81802;BME280;71199;52.490;5.448;2024-02-14T03:09:48;101218.50;;;8.13;100.00
81802;BME280;71199;52.490;5.448;2024-02-14T03:12:14;101216.63;;;8.14;100.00
81802;BME280;71199;52.490;5.448;2024-02-14T03:14:41;101213.44;;;8.18;100.00
81802;BME280;71199;52.490;5.448;2024-02-14T03:17:08;101219.19;;;8.15;100.00
81802;BME280;71199;52.490;5.448;2024-02-14T03:19:35;101217.50;;;8.14;100.00
81802;BME280;71199;52.490;5.448;2024-02-14T03:22:04;101223.53;;;8.18;100.00
81802;BME280;71199;52.490;5.448;2024-02-14T03:24:31;101229.88;;;8.18;100.00
81802;BME280;71199;52.490;5.448;2024-02-14T03:26:56;101223.09;;;8.13;100.00
81802;BME280;71199;52.490;5.448;2024-02-14T03:29:22;101227.59;;;8.14;100.00
81802;BME280;71199;52.490;5.448;2024-02-14T03:31:48;101219.19;;;8.15;100.00
81802;BME280;71199;52.490;5.448;2024-02-14T03:34:13;101231.75;;;8.18;100.00
81802;BME280;71199;52.490;5.448;2024-02-14T03:36:39;101224.84;;;8.14;100.00
81802;BME280;71199;52.490;5.448;2024-02-14T03:39:05;101224.84;;;8.14;100.00
81802;BME280;71199;52.490;5.448;2024-02-14T03:41:32;101228.44;;;8.14;100.00
81802;BME280;71199;52.490;5.448;2024-02-14T03:43:57;101229.16;;;8.16;100.00
81802;BME280;71199;52.490;5.448;2024-02-14T03:46:27;101232.63;;;8.18;100.00
81802;BME280;71199;52.490;5.448;2024-02-14T03:48:54;101230.72;;;8.19;100.00
81802;BME280;71199;52.490;5.448;2024-02-14T03:51:19;101228.84;;;8.19;100.00
81802;BME280;71199;52.490;5.448;2024-02-14T03:53:45;101225.22;;;8.28;100.00
81802;BME280;71199;52.490;5.448;2024-02-14T03:56:10;101226.41;;;8.26;100.00
81802;BME280;71199;52.490;5.448;2024-02-14T03:58:38;101232.88;;;8.25;100.00
81802;BME280;71199;52.490;5.448;2024-02-14T04:01:04;101235.47;;;8.26;100.00
81802;BME280;71199;52.490;5.448;2024-02-14T04:03:29;101241.81;;;8.27;100.00
81802;BME280;71199;52.490;5.448;2024-02-14T04:05:55;101237.91;;;8.30;100.00
81802;BME280;71199;52.490;5.448;2024-02-14T04:08:20;101239.31;;;8.34;100.00
81802;BME280;71199;52.490;5.448;2024-02-14T04:10:46;101252.88;;;8.35;100.00
81802;BME280;71199;52.490;5.448;2024-02-14T04:13:15;101241.91;;;8.35;100.00
81802;BME280;71199;52.490;5.448;2024-02-14T04:15:40;101255.16;;;8.40;100.00
81802;BME280;71199;52.490;5.448;2024-02-14T04:18:08;101249.44;;;8.43;100.00
81802;BME280;71199;52.490;5.448;2024-02-14T04:20:34;101249.69;;;8.40;100.00
81802;BME280;71199;52.490;5.448;2024-02-14T04:22:59;101255.75;;;8.43;100.00
81802;BME280;71199;52.490;5.448;2024-02-14T04:25:24;101259.78;;;8.49;100.00
81802;BME280;71199;52.490;5.448;2024-02-14T04:27:50;101260.63;;;8.50;100.00
81802;BME280;71199;52.490;5.448;2024-02-14T04:30:15;101265.84;;;8.53;100.00
81802;BME280;71199;52.490;5.448;2024-02-14T04:32:40;101262.06;;;8.54;100.00
81802;BME280;71199;52.490;5.448;2024-02-14T04:35:09;101262.63;;;8.57;100.00
81802;BME280;71199;52.490;5.448;2024-02-14T04:37:34;101272.13;;;8.63;100.00
81802;BME280;71199;52.490;5.448;2024-02-14T04:39:59;101269.50;;;8.71;100.00
81802;BME280;71199;52.490;5.448;2024-02-14T04:42:25;101271.22;;;8.72;100.00
81802;BME280;71199;52.490;5.448;2024-02-14T04:44:50;101277.97;;;8.78;100.00
81802;BME280;71199;52.490;5.448;2024-02-14T04:47:15;101281.72;;;8.77;100.00
81802;BME280;71199;52.490;5.448;2024-02-14T04:49:41;101285.63;;;8.74;100.00
81802;BME280;71199;52.490;5.448;2024-02-14T04:52:07;101285.75;;;8.82;100.00
81802;BME280;71199;52.490;5.448;2024-02-14T04:54:33;101287.31;;;8.85;100.00
81802;BME280;71199;52.490;5.448;2024-02-14T04:56:59;101287.03;;;8.88;100.00
81802;BME280;71199;52.490;5.448;2024-02-14T04:59:24;101283.25;;;8.89;100.00
81802;BME280;71199;52.490;5.448;2024-02-14T05:01:49;101288.34;;;8.84;100.00
81802;BME280;71199;52.490;5.448;2024-02-14T05:04:16;101298.97;;;8.87;100.00
81802;BME280;71199;52.490;5.448;2024-02-14T05:06:42;101296.81;;;8.91;100.00
81802;BME280;71199;52.490;5.448;2024-02-14T05:09:07;101295.63;;;8.93;100.00
81802;BME280;71199;52.490;5.448;2024-02-14T05:11:36;101308.47;;;8.93;100.00
81802;BME280;71199;52.490;5.448;2024-02-14T05:14:01;101308.34;;;8.94;100.00
81802;BME280;71199;52.490;5.448;2024-02-14T05:16:27;101300.81;;;8.96;100.00
81802;BME280;71199;52.490;5.448;2024-02-14T05:18:53;101314.69;;;8.95;100.00
81802;BME280;71199;52.490;5.448;2024-02-14T05:21:20;101314.69;;;8.95;100.00
81802;BME280;71199;52.490;5.448;2024-02-14T05:23:46;101322.75;;;8.96;100.00
81802;BME280;71199;52.490;5.448;2024-02-14T05:26:12;101322.44;;;8.99;100.00
81802;BME280;71199;52.490;5.448;2024-02-14T05:28:37;101319.56;;;9.01;100.00
81802;BME280;71199;52.490;5.448;2024-02-14T05:31:03;101319.69;;;8.99;100.00
81802;BME280;71199;52.490;5.448;2024-02-14T05:33:28;101327.78;;;9.01;100.00
81802;BME280;71199;52.490;5.448;2024-02-14T05:35:53;101329.81;;;8.99;100.00
81802;BME280;71199;52.490;5.448;2024-02-14T05:38:19;101328.94;;;8.98;100.00
81802;BME280;71199;52.490;5.448;2024-02-14T05:40:45;101328.50;;;9.03;100.00
81802;BME280;71199;52.490;5.448;2024-02-14T05:43:11;101327.31;;;9.05;100.00
81802;BME280;71199;52.490;5.448;2024-02-14T05:45:36;101332.19;;;9.12;100.00
81802;BME280;71199;52.490;5.448;2024-02-14T05:48:02;101334.41;;;9.08;100.00
81802;BME280;71199;52.490;5.448;2024-02-14T05:50:27;101340.72;;;9.08;100.00
81802;BME280;71199;52.490;5.448;2024-02-14T05:52:53;101339.16;;;9.06;100.00
81802;BME280;71199;52.490;5.448;2024-02-14T05:55:18;101338.25;;;9.15;100.00
81802;BME280;71199;52.490;5.448;2024-02-14T05:57:44;101340.03;;;9.06;100.00
81802;BME280;71199;52.490;5.448;2024-02-14T06:00:09;101343.00;;;9.13;100.00
81802;BME280;71199;52.490;5.448;2024-02-14T06:02:35;101340.28;;;9.13;100.00
81802;BME280;71199;52.490;5.448;2024-02-14T06:05:01;101341.72;;;9.07;100.00
81802;BME280;71199;52.490;5.448;2024-02-14T06:07:26;101337.25;;;9.16;100.00
81802;BME280;71199;52.490;5.448;2024-02-14T06:09:53;101341.13;;;9.14;100.00
81802;BME280;71199;52.490;5.448;2024-02-14T06:12:19;101336.22;;;9.17;100.00
81802;BME280;71199;52.490;5.448;2024-02-14T06:14:47;101341.69;;;9.17;100.00
81802;BME280;71199;52.490;5.448;2024-02-14T06:17:12;101343.72;;;9.15;100.00
81802;BME280;71199;52.490;5.448;2024-02-14T06:19:38;101354.41;;;9.18;100.00
81802;BME280;71199;52.490;5.448;2024-02-14T06:22:04;101351.38;;;9.12;100.00
81802;BME280;71199;52.490;5.448;2024-02-14T06:24:29;101358.47;;;9.14;100.00
81802;BME280;71199;52.490;5.448;2024-02-14T06:26:55;101366.94;;;9.21;100.00
81802;BME280;71199;52.490;5.448;2024-02-14T06:29:20;101363.31;;;9.20;100.00
81802;BME280;71199;52.490;5.448;2024-02-14T06:31:46;101368.78;;;9.20;100.00
81802;BME280;71199;52.490;5.448;2024-02-14T06:34:12;101370.53;;;9.21;100.00
81802;BME280;71199;52.490;5.448;2024-02-14T06:36:37;101373.84;;;9.25;100.00
81802;BME280;71199;52.490;5.448;2024-02-14T06:39:04;101375.97;;;9.31;100.00
81802;BME280;71199;52.490;5.448;2024-02-14T06:41:29;101373.66;;;9.26;100.00
81802;BME280;71199;52.490;5.448;2024-02-14T06:43:55;101378.31;;;9.26;100.00
81802;BME280;71199;52.490;5.448;2024-02-14T06:46:20;101384.34;;;9.30;100.00
81802;BME280;71199;52.490;5.448;2024-02-14T06:48:45;101391.41;;;9.32;100.00
81802;BME280;71199;52.490;5.448;2024-02-14T06:51:11;101384.91;;;9.33;100.00
81802;BME280;71199;52.490;5.448;2024-02-14T06:53:36;101400.19;;;9.36;100.00
81802;BME280;71199;52.490;5.448;2024-02-14T06:56:01;101399.03;;;9.38;100.00
81802;BME280;71199;52.490;5.448;2024-02-14T06:58:27;101394.72;;;9.36;100.00
81802;BME280;71199;52.490;5.448;2024-02-14T07:00:52;101392.38;;;9.41;100.00
81802;BME280;71199;52.490;5.448;2024-02-14T07:03:18;101405.09;;;9.42;100.00
81802;BME280;71199;52.490;5.448;2024-02-14T07:05:43;101404.22;;;9.41;100.00
81802;BME280;71199;52.490;5.448;2024-02-14T07:08:08;101408.69;;;9.42;100.00
81802;BME280;71199;52.490;5.448;2024-02-14T07:10:34;101404.38;;;9.40;100.00
81802;BME280;71199;52.490;5.448;2024-02-14T07:12:59;101415.34;;;9.40;100.00
81802;BME280;71199;52.490;5.448;2024-02-14T07:15:25;101417.38;;;9.38;100.00
81802;BME280;71199;52.490;5.448;2024-02-14T07:17:54;101416.75;;;9.44;100.00
81802;BME280;71199;52.490;5.448;2024-02-14T07:20:20;101417.22;;;9.39;100.00
81802;BME280;71199;52.490;5.448;2024-02-14T07:22:45;101420.97;;;9.38;100.00
81802;BME280;71199;52.490;5.448;2024-02-14T07:25:13;101414.31;;;9.41;100.00
81802;BME280;71199;52.490;5.448;2024-02-14T07:27:39;101421.69;;;9.40;100.00
81802;BME280;71199;52.490;5.448;2024-02-14T07:30:05;101417.94;;;9.41;100.00
81802;BME280;71199;52.490;5.448;2024-02-14T07:32:31;101421.53;;;9.42;100.00
81802;BME280;71199;52.490;5.448;2024-02-14T07:34:56;101426.72;;;9.45;100.00
81802;BME280;71199;52.490;5.448;2024-02-14T07:37:21;101424.28;;;9.42;100.00
81802;BME280;71199;52.490;5.448;2024-02-14T07:39:47;101423.25;;;9.43;100.00
81802;BME280;71199;52.490;5.448;2024-02-14T07:42:13;101424.84;;;9.45;100.00
81802;BME280;71199;52.490;5.448;2024-02-14T07:44:38;101432.19;;;9.45;100.00
81802;BME280;71199;52.490;5.448;2024-02-14T07:47:04;101428.75;;;9.43;100.00
81802;BME280;71199;52.490;5.448;2024-02-14T07:49:30;101431.34;;;9.44;100.00
81802;BME280;71199;52.490;5.448;2024-02-14T07:51:55;101434.94;;;9.45;100.00
81802;BME280;71199;52.490;5.448;2024-02-14T07:54:21;101435.13;;;9.43;100.00
81802;BME280;71199;52.490;5.448;2024-02-14T07:56:46;101435.53;;;9.39;100.00
81802;BME280;71199;52.490;5.448;2024-02-14T07:59:12;101435.13;;;9.43;100.00
81802;BME280;71199;52.490;5.448;2024-02-14T08:01:37;101443.63;;;9.40;100.00
81802;BME280;71199;52.490;5.448;2024-02-14T08:04:02;101443.16;;;9.45;100.00
81802;BME280;71199;52.490;5.448;2024-02-14T08:06:29;101443.88;;;9.47;100.00
81802;BME280;71199;52.490;5.448;2024-02-14T08:08:54;101447.03;;;9.52;100.00
81802;BME280;71199;52.490;5.448;2024-02-14T08:11:24;101445.72;;;9.56;100.00
81802;BME280;71199;52.490;5.448;2024-02-14T08:13:50;101449.75;;;9.62;100.00
81802;BME280;71199;52.490;5.448;2024-02-14T08:16:16;101448.72;;;9.63;100.00
81802;BME280;71199;52.490;5.448;2024-02-14T08:18:41;101448.31;;;9.58;100.00
81802;BME280;71199;52.490;5.448;2024-02-14T08:21:09;101453.34;;;9.62;100.00
81802;BME280;71199;52.490;5.448;2024-02-14T08:23:35;101454.53;;;9.60;100.00
81802;BME280;71199;52.490;5.448;2024-02-14T08:26:01;101460.88;;;9.60;100.00
81802;BME280;71199;52.490;5.448;2024-02-14T08:28:26;101463.00;;;9.66;100.00
81802;BME280;71199;52.490;5.448;2024-02-14T08:30:52;101455.94;;;9.64;100.00
81802;BME280;71199;52.490;5.448;2024-02-14T08:33:17;101458.22;;;9.68;100.00
81802;BME280;71199;52.490;5.448;2024-02-14T08:35:42;101450.13;;;9.67;100.00
81802;BME280;71199;52.490;5.448;2024-02-14T08:38:08;101457.50;;;9.66;100.00
81802;BME280;71199;52.490;5.448;2024-02-14T08:40:34;101450.38;;;9.74;100.00
81802;BME280;71199;52.490;5.448;2024-02-14T08:42:59;101462.41;;;9.73;100.00
81802;BME280;71199;52.490;5.448;2024-02-14T08:45:24;101458.09;;;9.70;100.00
81802;BME280;71199;52.490;5.448;2024-02-14T08:47:50;101465.59;;;9.68;100.00
81802;BME280;71199;52.490;5.448;2024-02-14T08:50:16;101459.56;;;9.64;100.00
81802;BME280;71199;52.490;5.448;2024-02-14T08:52:42;101460.81;;;9.70;100.00
81802;BME280;71199;52.490;5.448;2024-02-14T08:55:08;101461.34;;;9.74;100.00
81802;BME280;71199;52.490;5.448;2024-02-14T08:57:40;101458.91;;;9.80;100.00
81802;BME280;71199;52.490;5.448;2024-02-14T09:00:06;101465.09;;;9.82;100.00
81802;BME280;71199;52.490;5.448;2024-02-14T09:02:32;101462.88;;;9.86;100.00
81802;BME280;71199;52.490;5.448;2024-02-14T09:05:00;101465.34;;;9.89;100.00
81802;BME280;71199;52.490;5.448;2024-02-14T09:07:26;101462.03;;;9.85;100.00
81802;BME280;71199;52.490;5.448;2024-02-14T09:09:51;101474.75;;;9.86;100.00
81802;BME280;71199;52.490;5.448;2024-02-14T09:12:17;101476.94;;;9.83;100.00
81802;BME280;71199;52.490;5.448;2024-02-14T09:14:42;101474.28;;;9.91;100.00
81802;BME280;71199;52.490;5.448;2024-02-14T09:17:08;101471.38;;;9.93;100.00
81802;BME280;71199;52.490;5.448;2024-02-14T09:19:33;101466.44;;;9.96;100.00
81802;BME280;71199;52.490;5.448;2024-02-14T09:21:59;101471.47;;;10.01;100.00
81802;BME280;71199;52.490;5.448;2024-02-14T09:24:24;101479.88;;;9.99;100.00
81802;BME280;71199;52.490;5.448;2024-02-14T09:26:50;101477.25;;;9.98;100.00
81802;BME280;71199;52.490;5.448;2024-02-14T09:29:15;101484.94;;;9.94;100.00
81802;BME280;71199;52.490;5.448;2024-02-14T09:31:40;101481.56;;;10.00;100.00
81802;BME280;71199;52.490;5.448;2024-02-14T09:34:06;101492.88;;;9.97;100.00
81802;BME280;71199;52.490;5.448;2024-02-14T09:36:31;101490.44;;;9.94;100.00
81802;BME280;71199;52.490;5.448;2024-02-14T09:38:57;101483.59;;;9.98;100.00
81802;BME280;71199;52.490;5.448;2024-02-14T09:41:41;101485.03;;;10.02;100.00
81802;BME280;71199;52.490;5.448;2024-02-14T09:44:08;101484.75;;;10.05;100.00
81802;BME280;71199;52.490;5.448;2024-02-14T09:46:35;101484.19;;;10.02;100.00
81802;BME280;71199;52.490;5.448;2024-02-14T09:49:03;101489.53;;;10.03;100.00
81802;BME280;71199;52.490;5.448;2024-02-14T09:51:29;101492.34;;;10.12;100.00
81802;BME280;71199;52.490;5.448;2024-02-14T09:53:54;101484.22;;;10.20;100.00
81802;BME280;71199;52.490;5.448;2024-02-14T09:56:21;101475.25;;;10.18;100.00
81802;BME280;71199;52.490;5.448;2024-02-14T09:58:49;101489.28;;;10.15;100.00
81802;BME280;71199;52.490;5.448;2024-02-14T10:01:20;101489.00;;;10.18;100.00
81802;BME280;71199;52.490;5.448;2024-02-14T10:03:49;101480.97;;;10.06;100.00
81802;BME280;71199;52.490;5.448;2024-02-14T10:06:15;101488.81;;;10.01;100.00
81802;BME280;71199;52.490;5.448;2024-02-14T10:08:41;101490.69;;;10.01;100.00
81802;BME280;71199;52.490;5.448;2024-02-14T10:11:08;101494.59;;;9.98;100.00
81802;BME280;71199;52.490;5.448;2024-02-14T10:13:33;101503.06;;;9.87;100.00
81802;BME280;71199;52.490;5.448;2024-02-14T10:16:00;101504.63;;;9.89;100.00
81802;BME280;71199;52.490;5.448;2024-02-14T10:18:26;101509.75;;;10.02;100.00
81802;BME280;71199;52.490;5.448;2024-02-14T10:20:58;101510.97;;;10.18;100.00
81802;BME280;71199;52.490;5.448;2024-02-14T10:23:23;101510.91;;;10.27;100.00
81802;BME280;71199;52.490;5.448;2024-02-14T10:25:50;101510.84;;;10.37;100.00
81802;BME280;71199;52.490;5.448;2024-02-14T10:28:16;101517.84;;;10.32;100.00
81802;BME280;71199;52.490;5.448;2024-02-14T10:30:45;101509.75;;;10.30;100.00
81802;BME280;71199;52.490;5.448;2024-02-14T10:33:11;101524.78;;;10.26;100.00
81802;BME280;71199;52.490;5.448;2024-02-14T10:35:37;101524.91;;;10.34;100.00
81802;BME280;71199;52.490;5.448;2024-02-14T10:38:07;101516.34;;;10.37;100.00
81802;BME280;71199;52.490;5.448;2024-02-14T10:40:35;101527.34;;;10.37;100.00
81802;BME280;71199;52.490;5.448;2024-02-14T10:43:01;101512.59;;;10.38;100.00
81802;BME280;71199;52.490;5.448;2024-02-14T10:45:27;101530.16;;;10.45;100.00
81802;BME280;71199;52.490;5.448;2024-02-14T10:47:56;101531.59;;;10.49;100.00
81802;BME280;71199;52.490;5.448;2024-02-14T10:50:24;101525.00;;;10.42;100.00
81802;BME280;71199;52.490;5.448;2024-02-14T10:52:57;101527.03;;;10.40;100.00
81802;BME280;71199;52.490;5.448;2024-02-14T10:55:24;101529.56;;;10.34;100.00
81802;BME280;71199;52.490;5.448;2024-02-14T10:57:53;101531.72;;;10.30;100.00
81802;BME280;71199;52.490;5.448;2024-02-14T11:00:20;101542.13;;;10.26;100.00
81802;BME280;71199;52.490;5.448;2024-02-14T11:02:47;101533.75;;;10.28;100.00
81802;BME280;71199;52.490;5.448;2024-02-14T11:05:14;101524.47;;;10.29;100.00
81802;BME280;71199;52.490;5.448;2024-02-14T11:07:46;101524.19;;;10.32;100.00
81802;BME280;71199;52.490;5.448;2024-02-14T11:10:16;101535.44;;;10.29;100.00
81802;BME280;71199;52.490;5.448;2024-02-14T11:12:42;101522.88;;;10.36;100.00
81802;BME280;71199;52.490;5.448;2024-02-14T11:15:19;101514.63;;;10.36;100.00
81802;BME280;71199;52.490;5.448;2024-02-14T11:17:45;101509.44;;;10.33;100.00
81802;BME280;71199;52.490;5.448;2024-02-14T11:20:19;101514.63;;;10.36;100.00
81802;BME280;71199;52.490;5.448;2024-02-14T11:22:56;101519.56;;;10.33;100.00
81802;BME280;71199;52.490;5.448;2024-02-14T11:25:23;101520.59;;;10.32;100.00
81802;BME280;71199;52.490;5.448;2024-02-14T11:27:49;101522.03;;;10.36;100.00
81802;BME280;71199;52.490;5.448;2024-02-14T11:30:26;101518.09;;;10.38;100.00
81802;BME280;71199;52.490;5.448;2024-02-14T11:32:52;101522.72;;;10.38;100.00
81802;BME280;71199;52.490;5.448;2024-02-14T11:35:18;101518.47;;;10.43;100.00
81802;BME280;71199;52.490;5.448;2024-02-14T11:37:51;101522.88;;;10.36;100.00
81802;BME280;71199;52.490;5.448;2024-02-14T11:40:19;101527.50;;;10.36;100.00
81802;BME280;71199;52.490;5.448;2024-02-14T11:42:46;101520.97;;;10.37;100.00
81802;BME280;71199;52.490;5.448;2024-02-14T11:45:13;101510.00;;;10.37;100.00
81802;BME280;71199;52.490;5.448;2024-02-14T11:47:38;101500.03;;;10.36;100.00
81802;BME280;71199;52.490;5.448;2024-02-14T11:50:04;101512.03;;;10.35;100.00
81802;BME280;71199;52.490;5.448;2024-02-14T11:52:30;101515.91;;;10.42;100.00
81802;BME280;71199;52.490;5.448;2024-02-14T11:54:55;101507.38;;;10.35;100.00
81802;BME280;71199;52.490;5.448;2024-02-14T11:57:22;101509.94;;;10.46;100.00
81802;BME280;71199;52.490;5.448;2024-02-14T11:59:52;101511.81;;;10.46;100.00
81802;BME280;71199;52.490;5.448;2024-02-14T12:02:19;101510.56;;;10.40;100.00
81802;BME280;71199;52.490;5.448;2024-02-14T12:04:46;101506.75;;;10.41;100.00
81802;BME280;71199;52.490;5.448;2024-02-14T12:07:13;101505.44;;;10.45;100.00
81802;BME280;71199;52.490;5.448;2024-02-14T12:09:38;101505.22;;;10.57;100.00
81802;BME280;71199;52.490;5.448;2024-02-14T12:12:04;101503.09;;;10.51;100.00
81802;BME280;71199;52.490;5.448;2024-02-14T12:14:30;101502.47;;;10.39;100.00
81802;BME280;71199;52.490;5.448;2024-02-14T12:17:00;101494.38;;;10.37;100.00
81802;BME280;71199;52.490;5.448;2024-02-14T12:19:28;101486.53;;;10.42;100.00
81802;BME280;71199;52.490;5.448;2024-02-14T12:21:55;101495.06;;;10.57;100.00
81802;BME280;71199;52.490;5.448;2024-02-14T12:24:27;101499.88;;;10.73;100.00
81802;BME280;71199;52.490;5.448;2024-02-14T12:26:54;101505.19;;;10.75;100.00
81802;BME280;71199;52.490;5.448;2024-02-14T12:29:19;101481.06;;;10.86;100.00
81802;BME280;71199;52.490;5.448;2024-02-14T12:31:44;101490.16;;;10.87;100.00
81802;BME280;71199;52.490;5.448;2024-02-14T12:34:11;101490.72;;;10.91;100.00
81802;BME280;71199;52.490;5.448;2024-02-14T12:36:36;101482.31;;;10.92;100.00
81802;BME280;71199;52.490;5.448;2024-02-14T12:39:02;101472.56;;;10.98;100.00
81802;BME280;71199;52.490;5.448;2024-02-14T12:41:28;101483.44;;;11.07;100.00